EGBB Airport Information

Runway Information
Runway 15 Length 8527 ft width 151 ft
Elevation 305 ft Threshold 1069 ft Heading 148
Runway 33 Length 8527 ft Width 151 ft
Elevation 328 ft Threshold 987 ft Heading 328
Airport Frequencies
Type APP Name APP Frequency 118.05 MHZ
Type ATIS Name ATIS Frequency 136.02 MHZ
Type GND Name GND Frequency 121.8 MHZ
Type TWR Name TWR Frequency 118.3 MHZ
Airport Navaids
Type NDB Name Birmingham Frequency 406 KHZ
Airport Weather Information & NOTAM
ADDS - METARS form results

(0855 UTC 13 July 2020)
Data provider http://aviationweather.gov/metar/data/
 
METAR text: EGBB 130850Z 24005KT 180V340 CAVOK 17/09 Q1024
Conditions at: EGBB (BIRMINGHAM AIRPO, GB) observed 0850 UTC 13 July 2020
Temperature: 17.0°C (63°F)
Dewpoint: 9.0°C (48°F) [RH = 59%]
Pressure (altimeter): 30.24 inches Hg (1024.0 mb)
Winds: from the WSW (240 degrees) at 6 MPH (5 knots; 2.6 m/s)
Visibility: 6 or more miles (10+ km)
Ceiling: ceiling and visibility are OK
Clouds: unknown
Weather: no significant weather observed at this time

METAR text: EGBB 130820Z 23007KT 190V260 CAVOK 16/09 Q1024
Conditions at: EGBB (BIRMINGHAM AIRPO, GB) observed 0820 UTC 13 July 2020
Temperature: 16.0°C (61°F)
Dewpoint: 9.0°C (48°F) [RH = 63%]
Pressure (altimeter): 30.24 inches Hg (1024.0 mb)
Winds: from the SW (230 degrees) at 8 MPH (7 knots; 3.6 m/s)
Visibility: 6 or more miles (10+ km)
Ceiling: ceiling and visibility are OK
Clouds: unknown
Weather: no significant weather observed at this time

Forecast for: EGBB (BIRMINGHAM AIRPO, GB)
Text: TAF EGBB 130454Z 1306/1406 23007KT 9999 FEW045
Forecast period: 0600 UTC 13 July 2020 to 0600 UTC 14 July 2020
Forecast type: FROM: standard forecast or significant change
Winds: from the SW (230 degrees) at 8 MPH (7 knots; 3.6 m/s)
Visibility: 6 or more miles 10+ km)
Ceiling: at least 12,000 feet AGL
Clouds: few clouds at 4500 feet AGL
Weather: no significant weather forecast for this period
Text: PROB30
Forecast period: 0900 to 1200 UTC 13 July 2020
Forecast type: TEMPORARY: The following changes expected for less than half the time period
Visibility: 4 miles (7 km)
Ceiling: 1200 feet AGL
Clouds: broken clouds at 1200 feet AGL
Weather: RA DZ  (moderate rain, moderate drizzle)
Text: TEMPO 1309/1312 7000 RADZ BKN012
Forecast period: 1200 to 2100 UTC 13 July 2020
Forecast type: TEMPORARY: The following changes expected for less than half the time period
Visibility: 4 miles (7 km)
Ceiling: 1200 feet AGL
Clouds: broken clouds at 1200 feet AGL
Weather: RA DZ  (moderate rain, moderate drizzle)
Text: TEMPO 1312/1321 7000 RADZ BKN012
Forecast period: 2100 UTC 13 July 2020 to 0000 UTC 14 July 2020
Forecast type: TEMPORARY: The following changes expected for less than half the time period
Visibility: 4 miles (7 km)
Ceiling: unknown
Clouds: missing
Weather: SHRA  (rain showers)